createdAt,value
2019-02-10T00:01:51.945Z,14.77
2019-02-10T00:04:40.830Z,11.80
2019-02-10T00:07:10.942Z,15.57
2019-02-10T00:13:26.483Z,10.67
2019-02-10T00:16:16.658Z,6.10
2019-02-10T00:19:24.058Z,10.67
2019-02-10T00:22:31.856Z,10.63
2019-02-10T00:28:03.531Z,8.50
2019-02-10T00:30:52.287Z,9.40
2019-02-10T00:33:32.596Z,13.40
2019-02-10T00:39:49.590Z,9.17
2019-02-10T00:42:38.434Z,12.07
2019-02-10T00:45:08.587Z,8.17
2019-02-10T00:48:08.444Z,9.20
2019-02-10T00:50:47.851Z,11.17
2019-02-10T00:53:36.617Z,12.70
2019-02-10T00:56:44.674Z,9.83
2019-02-10T00:59:34.027Z,15.27
2019-02-10T01:02:22.831Z,11.50
2019-02-10T01:08:21.243Z,10.90
2019-02-10T01:10:51.018Z,9.47
2019-02-10T01:13:58.804Z,12.10
2019-02-10T01:16:47.610Z,13.37
2019-02-10T01:19:43.513Z,11.00
2019-02-10T01:22:44.884Z,6.90
2019-02-10T01:25:22.767Z,6.50
2019-02-10T01:27:52.640Z,9.83
2019-02-10T01:33:59.429Z,13.23
2019-02-10T01:39:29.871Z,12.23
2019-02-10T01:45:17.887Z,13.30
2019-02-10T01:48:06.726Z,11.10
2019-02-10T01:50:36.595Z,7.67
2019-02-10T01:53:36.628Z,9.67
2019-02-10T01:56:17.447Z,10.57
2019-02-10T01:58:57.577Z,10.30
2019-02-10T02:01:46.407Z,9.10
2019-02-10T02:04:35.160Z,11.80
2019-02-10T02:10:44.299Z,8.37
2019-02-10T02:13:23.704Z,6.70
2019-02-10T02:16:19.967Z,7.87
2019-02-10T02:22:37.018Z,8.07
2019-02-10T02:25:25.767Z,8.97
2019-02-10T02:28:14.547Z,4.53
2019-02-10T02:30:44.341Z,5.70
2019-02-10T02:33:33.028Z,8.90
2019-02-10T02:39:12.518Z,4.07
2019-02-10T02:42:15.088Z,3.17
2019-02-10T02:47:50.995Z,4.90
2019-02-10T02:50:21.076Z,4.57
2019-02-10T02:52:51.233Z,2.93
2019-02-10T02:55:20.981Z,10.67
2019-02-10T02:57:52.096Z,5.17
2019-02-10T03:00:23.699Z,3.53
2019-02-10T03:02:53.379Z,4.27
2019-02-10T03:05:23.545Z,1.23
2019-02-10T03:07:53.297Z,1.10
2019-02-10T03:10:23.372Z,2.37
2019-02-10T03:12:56.109Z,3.60
2019-02-10T03:15:25.891Z,3.13
2019-02-10T03:17:58.427Z,2.37
2019-02-10T03:20:28.221Z,2.10
2019-02-10T03:23:02.387Z,2.63
2019-02-10T03:25:32.197Z,1.40
2019-02-10T03:28:04.832Z,4.33
2019-02-10T03:30:34.907Z,0.60
2019-02-10T03:33:05.745Z,1.47
2019-02-10T03:35:35.582Z,3.33
2019-02-10T03:38:11.774Z,2.07
2019-02-10T03:40:41.781Z,3.23
2019-02-10T03:43:14.679Z,1.80
2019-02-10T03:45:44.502Z,3.97
2019-02-10T03:48:17.052Z,2.07
2019-02-10T03:50:47.118Z,2.27
2019-02-10T03:53:20.102Z,2.20
2019-02-10T03:55:49.838Z,0.70
2019-02-10T03:58:22.660Z,2.97
2019-02-10T04:00:52.701Z,2.43
2019-02-10T04:03:26.274Z,1.13
2019-02-10T04:05:56.063Z,0.97
2019-02-10T04:08:26.451Z,0.50
2019-02-10T04:10:56.215Z,1.03
2019-02-10T04:13:27.878Z,0.60
2019-02-10T04:15:57.888Z,0.67
2019-02-10T04:18:30.386Z,1.30
2019-02-10T04:21:00.151Z,0.57
2019-02-10T04:23:33.953Z,0.80
2019-02-10T04:26:04.035Z,0.63
2019-02-10T04:28:36.507Z,0.83
2019-02-10T04:31:06.259Z,1.17
2019-02-10T04:33:39.177Z,1.40
2019-02-10T04:36:08.901Z,0.40
2019-02-10T04:38:41.896Z,0.07
2019-02-10T04:41:11.636Z,0.20
2019-02-10T04:43:43.044Z,0.20
2019-02-10T04:46:13.080Z,0.90
2019-02-10T04:48:50.455Z,0.63
2019-02-10T04:51:20.187Z,0.63
2019-02-10T04:53:50.232Z,0.10
2019-02-10T04:56:20.294Z,0.60
2019-02-10T04:58:54.617Z,0.20
2019-02-10T05:01:24.634Z,0.50
2019-02-10T05:03:56.378Z,0.20
2019-02-10T05:06:26.095Z,1.00
2019-02-10T05:09:00.473Z,0.47
2019-02-10T05:11:49.287Z,0.20
2019-02-10T05:14:37.978Z,0.93
2019-02-10T05:23:27.298Z,0.80
2019-02-10T05:26:25.499Z,0.50
2019-02-10T05:28:55.437Z,0.20
2019-02-10T05:35:14.534Z,0.40
2019-02-10T05:44:10.906Z,0.50
2019-02-10T05:46:59.678Z,0.20
2019-02-10T05:49:48.366Z,0.33
2019-02-10T05:52:22.869Z,0.33
2019-02-10T05:55:11.662Z,0.70
2019-02-10T05:57:41.392Z,1.30
2019-02-10T06:00:11.469Z,0.37
2019-02-10T06:03:00.226Z,0.47
2019-02-10T06:05:40.977Z,1.20
2019-02-10T06:08:21.034Z,0.63
2019-02-10T06:14:30.753Z,0.23
2019-02-10T06:16:50.743Z,0.40
2019-02-10T06:23:00.808Z,0.60
2019-02-10T06:25:40.373Z,0.20
2019-02-10T06:31:46.961Z,0.27
2019-02-10T06:34:35.777Z,0.20
2019-02-10T06:37:24.682Z,0.20
2019-02-10T06:39:54.710Z,0.40
2019-02-10T06:42:24.774Z,1.33
2019-02-10T06:44:54.518Z,0.23
2019-02-10T06:47:43.532Z,0.30
2019-02-10T06:50:13.431Z,0.50
2019-02-10T07:05:45.171Z,0.20
2019-02-10T07:08:15.012Z,0.40
2019-02-10T07:10:44.818Z,0.37
2019-02-10T07:13:23.260Z,0.87
2019-02-10T07:16:39.099Z,0.83
2019-02-10T07:19:44.204Z,0.30
2019-02-10T07:23:02.790Z,0.27
2019-02-10T07:25:55.447Z,3.30
2019-02-10T07:29:18.200Z,1.47
2019-02-10T07:32:25.919Z,0.40
2019-02-10T07:35:33.651Z,0.20
2019-02-10T07:38:41.344Z,0.27
2019-02-10T07:41:49.089Z,0.20
2019-02-10T07:44:56.807Z,1.03
2019-02-10T07:48:04.491Z,0.27
2019-02-10T07:51:12.218Z,0.80
2019-02-10T07:54:04.398Z,0.50
2019-02-10T07:57:12.236Z,0.40
2019-02-10T08:04:10.135Z,0.30
2019-02-10T08:07:17.937Z,0.30
2019-02-10T08:09:59.342Z,0.40
2019-02-10T08:13:07.121Z,0.20
2019-02-10T08:16:28.890Z,0.30
2019-02-10T08:19:30.063Z,0.50
2019-02-10T08:26:06.754Z,0.77
2019-02-10T08:29:20.469Z,0.97
2019-02-10T08:32:18.523Z,0.20
2019-02-10T08:35:27.385Z,0.27
2019-02-10T08:38:35.205Z,0.80
2019-02-10T08:41:43.035Z,0.30
2019-02-10T08:44:50.860Z,0.30
2019-02-10T08:48:07.487Z,0.23
2019-02-10T08:51:15.182Z,0.20
2019-02-10T08:53:47.142Z,0.23
2019-02-10T08:59:26.124Z,0.77
2019-02-10T09:01:55.955Z,0.20
2019-02-10T09:04:25.734Z,0.30
2019-02-10T09:06:55.841Z,0.20
2019-02-10T09:09:25.584Z,0.20
2019-02-10T09:11:56.154Z,0.20
2019-02-10T09:14:26.311Z,0.30
2019-02-10T09:16:56.112Z,0.10
2019-02-10T09:19:25.842Z,0.30
2019-02-10T09:21:55.911Z,0.20
2019-02-10T09:24:25.756Z,1.03
2019-02-10T09:26:55.530Z,0.10
2019-02-10T09:29:27.119Z,0.17
2019-02-10T09:31:57.061Z,0.10
2019-02-10T09:34:27.069Z,0.20
2019-02-10T09:36:57.187Z,0.10
2019-02-10T09:39:30.229Z,0.10
2019-02-10T09:42:00.003Z,0.20
2019-02-10T09:44:32.455Z,0.10
2019-02-10T09:47:02.306Z,0.10
2019-02-10T09:49:35.704Z,0.20
2019-02-10T09:52:05.849Z,1.87
2019-02-10T09:54:39.257Z,0.10
2019-02-10T09:57:09.213Z,0.20
2019-02-10T09:59:42.024Z,0.13
2019-02-10T10:02:11.833Z,0.10
2019-02-10T10:04:46.362Z,0.20
2019-02-10T10:07:16.254Z,0.10
2019-02-10T10:09:48.638Z,0.10
2019-02-10T10:12:18.991Z,0.03
2019-02-10T10:14:49.764Z,0.20
2019-02-10T10:17:19.580Z,0.10
2019-02-10T10:19:55.190Z,1.40
2019-02-10T10:22:25.227Z,0.30
2019-02-10T10:24:58.584Z,0.87
2019-02-10T10:27:28.469Z,0.10
2019-02-10T10:30:01.555Z,0.10
2019-02-10T10:32:31.844Z,0.10
2019-02-10T10:35:04.883Z,0.10
2019-02-10T10:37:34.716Z,0.10
2019-02-10T10:40:09.241Z,0.10
2019-02-10T10:42:39.182Z,0.50
2019-02-10T10:45:11.066Z,0.03
2019-02-10T10:47:41.136Z,0.10
2019-02-10T10:50:13.558Z,0.20
2019-02-10T10:52:43.776Z,0.77
2019-02-10T10:55:15.388Z,0.50
2019-02-10T10:57:45.261Z,0.30
2019-02-10T11:00:19.286Z,0.20
2019-02-10T11:02:49.181Z,0.43
2019-02-10T11:05:20.948Z,0.60
2019-02-10T11:07:51.132Z,0.30
2019-02-10T11:10:25.577Z,0.93
2019-02-10T11:12:55.451Z,0.20
2019-02-10T11:15:26.560Z,0.20
2019-02-10T11:17:56.393Z,0.93
2019-02-10T11:20:29.141Z,0.10
2019-02-10T11:22:59.363Z,0.10
2019-02-10T11:25:30.669Z,0.20
2019-02-10T11:28:00.568Z,0.10
2019-02-10T11:30:33.005Z,0.20
2019-02-10T11:33:02.806Z,0.43
2019-02-10T11:35:44.084Z,0.20
2019-02-10T11:38:14.411Z,1.37
2019-02-10T11:40:44.285Z,0.40
2019-02-10T11:43:14.219Z,1.17
2019-02-10T11:45:44.456Z,0.30
2019-02-10T11:48:14.632Z,0.20
2019-02-10T11:50:44.858Z,1.33
2019-02-10T11:53:14.611Z,0.10
2019-02-10T11:55:47.932Z,0.13
2019-02-10T11:58:19.156Z,0.10
2019-02-10T12:00:50.113Z,0.20
2019-02-10T12:03:19.971Z,0.20
2019-02-10T12:05:53.035Z,0.60
2019-02-10T12:08:22.968Z,0.20
2019-02-10T12:10:57.379Z,0.40
2019-02-10T12:13:27.595Z,0.20
2019-02-10T12:16:00.543Z,0.30
2019-02-10T12:18:30.676Z,0.20
2019-02-10T12:21:09.975Z,0.30
2019-02-10T12:23:40.157Z,0.13
2019-02-10T12:26:10.319Z,0.57
2019-02-10T12:28:40.159Z,0.47
2019-02-10T12:31:10.042Z,0.30
2019-02-10T12:33:39.901Z,0.23
2019-02-10T12:36:14.272Z,0.30
2019-02-10T12:38:44.517Z,0.20
2019-02-10T12:41:15.411Z,1.47
2019-02-10T12:43:45.261Z,0.20
2019-02-10T12:46:17.640Z,0.20
2019-02-10T12:48:47.515Z,0.30
2019-02-10T12:51:19.102Z,1.27
2019-02-10T12:53:49.308Z,0.40
2019-02-10T12:56:22.578Z,0.40
2019-02-10T12:58:52.700Z,0.20
2019-02-10T13:01:23.677Z,0.30
2019-02-10T13:03:53.619Z,0.50
2019-02-10T13:08:55.126Z,0.67
2019-02-10T13:11:43.880Z,0.50
2019-02-10T13:14:32.697Z,0.30
2019-02-10T13:17:02.824Z,0.40
2019-02-10T13:19:44.328Z,0.77
2019-02-10T13:22:14.526Z,0.60
2019-02-10T13:25:03.466Z,0.97
2019-02-10T13:27:52.290Z,1.27
2019-02-10T13:30:41.141Z,0.60
2019-02-10T13:33:29.920Z,0.30
2019-02-10T13:35:59.940Z,0.90
2019-02-10T13:38:48.758Z,0.40
2019-02-10T13:41:18.686Z,0.60
2019-02-10T13:43:48.571Z,0.77
2019-02-10T13:46:37.360Z,0.70
2019-02-10T13:49:26.447Z,0.83
2019-02-10T13:51:56.807Z,0.63
2019-02-10T13:54:26.727Z,0.50
2019-02-10T13:57:15.573Z,0.40
2019-02-10T14:03:13.951Z,0.50
2019-02-10T14:06:02.760Z,0.10
2019-02-10T14:08:51.941Z,0.40
2019-02-10T14:11:21.763Z,0.13
2019-02-10T14:14:10.576Z,0.10
2019-02-10T14:17:08.793Z,0.20
2019-02-10T14:19:38.931Z,0.17
2019-02-10T14:22:20.732Z,0.20
2019-02-10T14:25:02.139Z,0.20
2019-02-10T14:27:43.002Z,0.20
2019-02-10T14:30:23.773Z,0.67
2019-02-10T14:32:53.682Z,0.20
2019-02-10T14:35:23.996Z,0.53
2019-02-10T14:37:53.938Z,0.83
2019-02-10T14:40:23.983Z,0.50
2019-02-10T14:43:24.576Z,0.30
2019-02-10T14:46:03.731Z,0.30
2019-02-10T14:49:11.688Z,0.60
2019-02-10T14:52:01.795Z,1.33
2019-02-10T14:54:32.101Z,0.33
2019-02-10T14:57:02.022Z,0.10
2019-02-10T14:59:45.758Z,0.97
2019-02-10T15:02:31.960Z,0.10
2019-02-10T15:05:20.753Z,0.50
2019-02-10T15:07:50.905Z,0.30
2019-02-10T15:10:20.820Z,0.60
2019-02-10T15:13:09.757Z,0.80
2019-02-10T15:15:39.686Z,0.40
2019-02-10T15:18:28.485Z,0.20
2019-02-10T15:21:18.266Z,0.97
2019-02-10T15:23:48.545Z,0.20
2019-02-10T15:26:18.418Z,1.40
2019-02-10T15:29:07.312Z,0.30
2019-02-10T15:31:56.475Z,0.23
2019-02-10T15:34:27.224Z,0.10
2019-02-10T15:40:25.530Z,0.37
2019-02-10T15:42:56.126Z,2.70
2019-02-10T15:45:25.998Z,0.33
2019-02-10T15:48:14.915Z,0.90
2019-02-10T15:51:05.731Z,1.33
2019-02-10T15:54:00.210Z,0.43
2019-02-10T15:56:49.046Z,0.40
2019-02-10T15:59:39.501Z,0.77
2019-02-10T16:02:09.606Z,1.03
2019-02-10T16:04:39.881Z,0.37
2019-02-10T16:07:09.827Z,0.30
2019-02-10T16:12:49.134Z,1.13
2019-02-10T16:15:20.457Z,0.70
2019-02-10T16:17:50.762Z,4.93
2019-02-10T16:20:20.743Z,0.30
2019-02-10T16:23:02.266Z,0.37
2019-02-10T16:25:32.584Z,0.40
2019-02-10T16:28:21.457Z,1.23
2019-02-10T16:30:51.571Z,1.07
2019-02-10T16:33:23.434Z,0.50
2019-02-10T16:36:12.257Z,0.43
2019-02-10T16:39:01.536Z,2.73
2019-02-10T16:41:31.457Z,0.50
2019-02-10T16:44:01.608Z,3.77
2019-02-10T16:52:47.865Z,0.60
2019-02-10T17:07:39.853Z,1.23
2019-02-10T17:10:30.349Z,1.57
2019-02-10T17:13:26.034Z,0.40
2019-02-10T17:19:36.328Z,1.60
2019-02-10T17:25:17.086Z,0.70
2019-02-10T17:27:58.594Z,0.40
2019-02-10T17:30:39.607Z,0.50
2019-02-10T17:33:19.825Z,0.70
2019-02-10T17:36:22.834Z,0.30
2019-02-10T17:42:08.710Z,0.47
2019-02-10T17:45:17.999Z,1.23
2019-02-10T18:03:59.640Z,1.80
2019-02-10T18:06:38.832Z,2.00
2019-02-10T18:09:16.065Z,2.40
2019-02-10T18:11:46.356Z,1.60
2019-02-10T18:14:35.575Z,1.70
2019-02-10T18:17:20.277Z,1.40
2019-02-10T18:20:16.414Z,1.10
2019-02-10T18:23:08.118Z,1.23
2019-02-10T18:25:54.085Z,1.47
2019-02-10T18:28:44.585Z,1.13
2019-02-10T18:31:38.311Z,1.10
2019-02-10T18:34:36.376Z,1.10
2019-02-10T18:37:17.423Z,0.80
2019-02-10T18:40:04.872Z,2.43
2019-02-10T18:42:45.335Z,1.30
2019-02-10T18:45:37.878Z,0.70
2019-02-10T18:48:31.984Z,1.03
2019-02-10T18:51:33.029Z,0.57
2019-02-10T18:54:27.749Z,0.70
2019-02-10T18:57:19.416Z,1.37
2019-02-10T19:00:13.725Z,0.90
2019-02-10T19:03:05.767Z,0.53
2019-02-10T19:05:54.797Z,1.00
2019-02-10T19:08:44.059Z,0.70
2019-02-10T19:11:34.149Z,0.37
2019-02-10T19:14:28.043Z,0.60
2019-02-10T19:17:07.823Z,1.23
2019-02-10T19:19:55.503Z,0.40
2019-02-10T19:22:57.225Z,0.30
2019-02-10T19:25:32.737Z,0.60
2019-02-10T19:28:21.136Z,0.87
2019-02-10T19:31:11.478Z,0.53
2019-02-10T19:34:09.181Z,1.10
2019-02-10T19:37:01.450Z,0.63
2019-02-10T19:39:50.358Z,0.40
2019-02-10T19:42:52.863Z,0.80
2019-02-10T19:45:41.513Z,0.40
2019-02-10T19:48:30.581Z,0.40
2019-02-10T19:51:17.926Z,0.30
2019-02-10T19:54:16.009Z,0.87
2019-02-10T19:57:01.231Z,0.77
2019-02-10T19:59:50.274Z,1.20
2019-02-10T20:02:39.133Z,0.70
2019-02-10T20:05:27.434Z,1.20
2019-02-10T20:08:18.514Z,1.47
2019-02-10T20:11:07.738Z,1.10
2019-02-10T20:13:45.972Z,0.77
2019-02-10T20:16:43.005Z,1.20
2019-02-10T20:19:35.806Z,1.70
2019-02-10T20:22:27.198Z,1.23
2019-02-10T20:25:16.042Z,1.77
2019-02-10T20:28:17.378Z,1.70
2019-02-10T20:31:09.077Z,0.77
2019-02-10T20:33:56.574Z,1.37
2019-02-10T20:36:34.300Z,1.73
2019-02-10T20:39:25.416Z,2.40
2019-02-10T20:42:12.188Z,1.60
2019-02-10T20:44:57.954Z,0.60
2019-02-10T20:47:45.209Z,1.90
2019-02-10T20:50:43.314Z,1.00
2019-02-10T20:53:28.892Z,0.50
2019-02-10T20:56:09.831Z,0.77
2019-02-10T20:58:51.834Z,1.17
2019-02-10T21:01:49.408Z,1.20
2019-02-10T21:04:38.214Z,1.60
2019-02-10T21:07:25.824Z,1.07
2019-02-10T21:10:14.862Z,1.93
2019-02-10T21:12:53.320Z,1.53
2019-02-10T21:15:42.814Z,1.63
2019-02-10T21:18:37.445Z,1.90
2019-02-10T21:21:33.644Z,1.93
2019-02-10T21:24:22.518Z,1.00
2019-02-10T21:27:09.638Z,1.83
2019-02-10T21:29:55.143Z,1.60
2019-02-10T21:32:50.324Z,2.33
2019-02-10T21:35:45.220Z,1.23
2019-02-10T21:38:26.178Z,1.53
2019-02-10T21:41:13.618Z,3.13
2019-02-10T21:44:01.560Z,0.80
2019-02-10T21:46:47.414Z,2.50
2019-02-10T21:49:20.417Z,3.73
2019-02-10T21:52:09.268Z,0.90
2019-02-10T21:55:28.366Z,1.50
2019-02-10T21:57:48.724Z,2.33
2019-02-10T22:00:51.590Z,1.60
2019-02-10T22:03:28.263Z,1.00
2019-02-10T22:05:58.475Z,0.80
2019-02-10T22:08:28.380Z,0.37
2019-02-10T22:10:58.261Z,0.50
2019-02-10T22:13:30.774Z,0.50
2019-02-10T22:16:00.538Z,2.00
2019-02-10T22:18:32.904Z,0.30
2019-02-10T22:21:02.790Z,0.30
2019-02-10T22:23:36.451Z,0.40
2019-02-10T22:26:06.607Z,0.60
2019-02-10T22:28:38.063Z,0.70
2019-02-10T22:31:08.074Z,1.60
2019-02-10T22:33:40.271Z,1.50
2019-02-10T22:36:10.084Z,0.97
2019-02-10T22:38:44.075Z,0.70
2019-02-10T22:41:13.981Z,0.77
2019-02-10T22:43:45.792Z,0.50
2019-02-10T22:46:17.327Z,0.40
2019-02-10T22:48:49.876Z,0.60
2019-02-10T22:51:19.842Z,0.50
2019-02-10T22:53:52.269Z,0.93
2019-02-10T22:56:22.251Z,0.80
2019-02-10T22:58:56.736Z,0.80
2019-02-10T23:01:26.900Z,1.33
2019-02-10T23:03:59.733Z,1.42
2019-02-10T23:06:29.561Z,0.97
2019-02-10T23:09:07.034Z,1.17
2019-02-10T23:11:37.226Z,1.00
2019-02-10T23:14:09.560Z,1.27
2019-02-10T23:16:39.410Z,1.10
2019-02-10T23:21:58.149Z,1.20
2019-02-10T23:24:27.970Z,1.70
2019-02-10T23:27:16.828Z,1.33
2019-02-10T23:30:17.625Z,2.47
2019-02-10T23:32:56.374Z,1.40
2019-02-10T23:35:38.127Z,1.60
2019-02-10T23:38:22.849Z,1.83
2019-02-10T23:41:04.485Z,1.60
2019-02-10T23:43:46.075Z,1.73
2019-02-10T23:49:09.888Z,0.83
2019-02-10T23:51:51.568Z,0.97
2019-02-10T23:54:32.577Z,0.57
2019-02-10T23:57:02.423Z,1.43
2019-02-10T23:59:32.519Z,0.53
